sensor_id;sensor_type;location;lat;lon;timestamp;P1;durP1;ratioP1;P2;durP2;ratioP2
30896;SDS011;64229;52.246;21.054;2023-09-18T00:01:42;10.67;;;7.33;;
30896;SDS011;64229;52.246;21.054;2023-09-18T00:04:09;10.73;;;7.20;;
30896;SDS011;64229;52.246;21.054;2023-09-18T00:06:34;10.20;;;6.75;;
30896;SDS011;64229;52.246;21.054;2023-09-18T00:09:00;13.43;;;6.28;;
30896;SDS011;64229;52.246;21.054;2023-09-18T00:11:25;11.60;;;7.00;;
30896;SDS011;64229;52.246;21.054;2023-09-18T00:13:50;11.90;;;6.83;;
30896;SDS011;64229;52.246;21.054;2023-09-18T00:16:15;10.17;;;7.70;;
30896;SDS011;64229;52.246;21.054;2023-09-18T00:18:41;10.88;;;7.13;;
30896;SDS011;64229;52.246;21.054;2023-09-18T00:21:07;11.38;;;7.60;;
30896;SDS011;64229;52.246;21.054;2023-09-18T00:23:35;10.48;;;7.47;;
30896;SDS011;64229;52.246;21.054;2023-09-18T00:26:00;10.68;;;7.63;;
30896;SDS011;64229;52.246;21.054;2023-09-18T00:28:26;14.05;;;8.02;;
30896;SDS011;64229;52.246;21.054;2023-09-18T00:30:51;12.98;;;8.07;;
30896;SDS011;64229;52.246;21.054;2023-09-18T00:33:17;10.40;;;7.22;;
30896;SDS011;64229;52.246;21.054;2023-09-18T00:35:47;13.30;;;8.02;;
30896;SDS011;64229;52.246;21.054;2023-09-18T00:38:14;11.43;;;7.85;;
30896;SDS011;64229;52.246;21.054;2023-09-18T00:40:39;11.07;;;7.68;;
30896;SDS011;64229;52.246;21.054;2023-09-18T00:43:04;13.30;;;8.63;;
30896;SDS011;64229;52.246;21.054;2023-09-18T00:45:30;12.48;;;7.68;;
30896;SDS011;64229;52.246;21.054;2023-09-18T00:47:55;13.00;;;8.00;;
30896;SDS011;64229;52.246;21.054;2023-09-18T00:50:20;14.82;;;8.68;;
30896;SDS011;64229;52.246;21.054;2023-09-18T00:52:46;14.63;;;8.40;;
30896;SDS011;64229;52.246;21.054;2023-09-18T00:55:13;14.23;;;9.18;;
30896;SDS011;64229;52.246;21.054;2023-09-18T00:57:39;14.25;;;9.48;;
30896;SDS011;64229;52.246;21.054;2023-09-18T01:00:06;14.18;;;9.23;;
30896;SDS011;64229;52.246;21.054;2023-09-18T01:02:32;13.80;;;8.60;;
30896;SDS011;64229;52.246;21.054;2023-09-18T01:04:57;12.00;;;8.57;;
30896;SDS011;64229;52.246;21.054;2023-09-18T01:07:22;14.43;;;9.77;;
30896;SDS011;64229;52.246;21.054;2023-09-18T01:09:48;16.15;;;10.18;;
30896;SDS011;64229;52.246;21.054;2023-09-18T01:17:48;13.98;;;9.57;;
30896;SDS011;64229;52.246;21.054;2023-09-18T01:20:13;19.30;;;11.00;;
30896;SDS011;64229;52.246;21.054;2023-09-18T01:22:38;16.30;;;9.90;;
30896;SDS011;64229;52.246;21.054;2023-09-18T01:25:03;15.32;;;10.73;;
30896;SDS011;64229;52.246;21.054;2023-09-18T01:27:31;16.27;;;11.23;;
30896;SDS011;64229;52.246;21.054;2023-09-18T01:29:56;13.53;;;10.40;;
30896;SDS011;64229;52.246;21.054;2023-09-18T01:32:23;15.97;;;10.93;;
30896;SDS011;64229;52.246;21.054;2023-09-18T01:34:52;19.85;;;10.20;;
30896;SDS011;64229;52.246;21.054;2023-09-18T01:37:20;18.25;;;11.32;;
30896;SDS011;64229;52.246;21.054;2023-09-18T01:39:48;16.35;;;10.95;;
30896;SDS011;64229;52.246;21.054;2023-09-18T01:42:15;14.15;;;10.98;;
30896;SDS011;64229;52.246;21.054;2023-09-18T01:44:43;16.92;;;11.88;;
30896;SDS011;64229;52.246;21.054;2023-09-18T01:47:11;19.15;;;11.15;;
30896;SDS011;64229;52.246;21.054;2023-09-18T01:49:39;17.17;;;11.05;;
30896;SDS011;64229;52.246;21.054;2023-09-18T01:52:06;18.33;;;10.98;;
30896;SDS011;64229;52.246;21.054;2023-09-18T01:54:32;18.23;;;11.68;;
30896;SDS011;64229;52.246;21.054;2023-09-18T01:56:59;15.77;;;11.40;;
30896;SDS011;64229;52.246;21.054;2023-09-18T01:59:24;17.13;;;11.45;;
30896;SDS011;64229;52.246;21.054;2023-09-18T02:01:50;17.30;;;12.25;;
30896;SDS011;64229;52.246;21.054;2023-09-18T02:04:16;19.83;;;12.13;;
30896;SDS011;64229;52.246;21.054;2023-09-18T02:06:42;17.88;;;11.98;;
30896;SDS011;64229;52.246;21.054;2023-09-18T02:09:08;17.65;;;11.88;;
30896;SDS011;64229;52.246;21.054;2023-09-18T02:11:35;14.10;;;10.13;;
30896;SDS011;64229;52.246;21.054;2023-09-18T02:14:02;16.38;;;11.25;;
30896;SDS011;64229;52.246;21.054;2023-09-18T02:16:29;20.92;;;11.75;;
30896;SDS011;64229;52.246;21.054;2023-09-18T02:18:54;17.83;;;11.95;;
30896;SDS011;64229;52.246;21.054;2023-09-18T02:21:21;26.63;;;11.98;;
30896;SDS011;64229;52.246;21.054;2023-09-18T02:23:50;16.60;;;11.70;;
30896;SDS011;64229;52.246;21.054;2023-09-18T02:26:16;18.50;;;13.05;;
30896;SDS011;64229;52.246;21.054;2023-09-18T02:28:42;17.73;;;11.93;;
30896;SDS011;64229;52.246;21.054;2023-09-18T02:31:07;17.33;;;12.50;;
30896;SDS011;64229;52.246;21.054;2023-09-18T02:33:34;16.63;;;12.20;;
30896;SDS011;64229;52.246;21.054;2023-09-18T02:35:59;17.63;;;11.33;;
30896;SDS011;64229;52.246;21.054;2023-09-18T02:38:25;18.17;;;11.55;;
30896;SDS011;64229;52.246;21.054;2023-09-18T02:40:51;17.27;;;11.63;;
30896;SDS011;64229;52.246;21.054;2023-09-18T02:43:18;18.35;;;12.88;;
30896;SDS011;64229;52.246;21.054;2023-09-18T02:45:43;17.23;;;12.35;;
30896;SDS011;64229;52.246;21.054;2023-09-18T02:48:09;17.65;;;11.70;;
30896;SDS011;64229;52.246;21.054;2023-09-18T02:50:35;19.30;;;12.10;;
30896;SDS011;64229;52.246;21.054;2023-09-18T02:53:00;21.07;;;12.63;;
30896;SDS011;64229;52.246;21.054;2023-09-18T02:55:25;18.52;;;12.57;;
30896;SDS011;64229;52.246;21.054;2023-09-18T02:57:51;19.05;;;12.57;;
30896;SDS011;64229;52.246;21.054;2023-09-18T03:00:16;22.57;;;12.83;;
30896;SDS011;64229;52.246;21.054;2023-09-18T03:02:42;21.25;;;13.80;;
30896;SDS011;64229;52.246;21.054;2023-09-18T03:05:07;19.47;;;13.17;;
30896;SDS011;64229;52.246;21.054;2023-09-18T03:07:33;20.83;;;12.70;;
30896;SDS011;64229;52.246;21.054;2023-09-18T03:09:59;20.40;;;13.25;;
30896;SDS011;64229;52.246;21.054;2023-09-18T03:12:24;18.80;;;12.87;;
30896;SDS011;64229;52.246;21.054;2023-09-18T03:14:49;19.93;;;11.93;;
30896;SDS011;64229;52.246;21.054;2023-09-18T03:17:14;20.75;;;13.02;;
30896;SDS011;64229;52.246;21.054;2023-09-18T03:19:40;19.20;;;13.20;;
30896;SDS011;64229;52.246;21.054;2023-09-18T03:22:05;20.80;;;13.20;;
30896;SDS011;64229;52.246;21.054;2023-09-18T03:24:30;20.42;;;12.95;;
30896;SDS011;64229;52.246;21.054;2023-09-18T03:26:56;17.17;;;11.15;;
30896;SDS011;64229;52.246;21.054;2023-09-18T03:29:21;19.92;;;12.80;;
30896;SDS011;64229;52.246;21.054;2023-09-18T03:31:47;18.73;;;12.43;;
30896;SDS011;64229;52.246;21.054;2023-09-18T03:34:12;18.97;;;13.03;;
30896;SDS011;64229;52.246;21.054;2023-09-18T03:36:38;27.10;;;13.85;;
30896;SDS011;64229;52.246;21.054;2023-09-18T03:39:04;20.42;;;12.15;;
30896;SDS011;64229;52.246;21.054;2023-09-18T03:41:30;21.65;;;12.52;;
30896;SDS011;64229;52.246;21.054;2023-09-18T03:43:59;20.50;;;12.82;;
30896;SDS011;64229;52.246;21.054;2023-09-18T03:46:25;21.92;;;14.20;;
30896;SDS011;64229;52.246;21.054;2023-09-18T03:48:50;20.35;;;13.23;;
30896;SDS011;64229;52.246;21.054;2023-09-18T03:51:15;19.20;;;12.93;;
30896;SDS011;64229;52.246;21.054;2023-09-18T03:53:41;22.40;;;13.82;;
30896;SDS011;64229;52.246;21.054;2023-09-18T03:56:06;20.20;;;13.27;;
30896;SDS011;64229;52.246;21.054;2023-09-18T03:58:31;22.57;;;13.83;;
30896;SDS011;64229;52.246;21.054;2023-09-18T04:00:57;22.65;;;13.85;;
30896;SDS011;64229;52.246;21.054;2023-09-18T04:03:22;19.10;;;13.52;;
30896;SDS011;64229;52.246;21.054;2023-09-18T04:05:47;22.27;;;13.60;;
30896;SDS011;64229;52.246;21.054;2023-09-18T04:08:13;20.63;;;13.52;;
30896;SDS011;64229;52.246;21.054;2023-09-18T04:10:38;24.80;;;15.20;;
30896;SDS011;64229;52.246;21.054;2023-09-18T04:13:03;19.88;;;13.57;;
30896;SDS011;64229;52.246;21.054;2023-09-18T04:15:29;20.17;;;14.20;;
30896;SDS011;64229;52.246;21.054;2023-09-18T04:17:55;23.05;;;14.90;;
30896;SDS011;64229;52.246;21.054;2023-09-18T04:20:21;23.20;;;14.57;;
30896;SDS011;64229;52.246;21.054;2023-09-18T04:22:47;25.25;;;15.13;;
30896;SDS011;64229;52.246;21.054;2023-09-18T04:25:33;24.15;;;14.55;;
30896;SDS011;64229;52.246;21.054;2023-09-18T04:27:58;22.20;;;14.93;;
30896;SDS011;64229;52.246;21.054;2023-09-18T04:30:23;22.30;;;14.60;;
30896;SDS011;64229;52.246;21.054;2023-09-18T04:32:48;20.70;;;14.63;;
30896;SDS011;64229;52.246;21.054;2023-09-18T04:35:16;20.27;;;13.52;;
30896;SDS011;64229;52.246;21.054;2023-09-18T04:37:42;19.80;;;14.02;;
30896;SDS011;64229;52.246;21.054;2023-09-18T04:40:07;22.90;;;15.85;;
30896;SDS011;64229;52.246;21.054;2023-09-18T04:42:37;22.20;;;15.13;;
30896;SDS011;64229;52.246;21.054;2023-09-18T04:45:04;25.30;;;14.75;;
30896;SDS011;64229;52.246;21.054;2023-09-18T04:47:30;24.38;;;13.95;;
30896;SDS011;64229;52.246;21.054;2023-09-18T04:49:55;23.80;;;15.27;;
30896;SDS011;64229;52.246;21.054;2023-09-18T04:52:20;23.90;;;14.33;;
30896;SDS011;64229;52.246;21.054;2023-09-18T04:54:46;22.80;;;14.13;;
30896;SDS011;64229;52.246;21.054;2023-09-18T04:57:11;19.83;;;14.13;;
30896;SDS011;64229;52.246;21.054;2023-09-18T04:59:36;25.30;;;14.27;;
30896;SDS011;64229;52.246;21.054;2023-09-18T05:02:02;20.73;;;13.52;;
30896;SDS011;64229;52.246;21.054;2023-09-18T05:04:27;21.27;;;13.73;;
30896;SDS011;64229;52.246;21.054;2023-09-18T05:06:53;20.13;;;13.55;;
30896;SDS011;64229;52.246;21.054;2023-09-18T05:09:18;19.60;;;13.55;;
30896;SDS011;64229;52.246;21.054;2023-09-18T05:11:44;20.77;;;13.40;;
30896;SDS011;64229;52.246;21.054;2023-09-18T05:14:09;21.17;;;13.40;;
30896;SDS011;64229;52.246;21.054;2023-09-18T05:16:35;21.88;;;14.07;;
30896;SDS011;64229;52.246;21.054;2023-09-18T05:19:00;19.15;;;13.75;;
30896;SDS011;64229;52.246;21.054;2023-09-18T05:21:25;21.90;;;14.10;;
30896;SDS011;64229;52.246;21.054;2023-09-18T05:23:52;21.30;;;14.05;;
30896;SDS011;64229;52.246;21.054;2023-09-18T05:26:18;22.90;;;13.70;;
30896;SDS011;64229;52.246;21.054;2023-09-18T05:28:43;25.40;;;13.27;;
30896;SDS011;64229;52.246;21.054;2023-09-18T05:31:09;20.85;;;13.90;;
30896;SDS011;64229;52.246;21.054;2023-09-18T05:33:34;19.40;;;13.40;;
30896;SDS011;64229;52.246;21.054;2023-09-18T05:35:59;18.63;;;13.17;;
30896;SDS011;64229;52.246;21.054;2023-09-18T05:38:25;21.88;;;13.50;;
30896;SDS011;64229;52.246;21.054;2023-09-18T05:40:50;20.00;;;13.30;;
30896;SDS011;64229;52.246;21.054;2023-09-18T05:43:15;19.35;;;13.65;;
30896;SDS011;64229;52.246;21.054;2023-09-18T05:45:41;20.85;;;13.77;;
30896;SDS011;64229;52.246;21.054;2023-09-18T05:48:06;23.33;;;13.70;;
30896;SDS011;64229;52.246;21.054;2023-09-18T05:50:33;19.13;;;12.38;;
30896;SDS011;64229;52.246;21.054;2023-09-18T05:53:00;22.90;;;14.50;;
30896;SDS011;64229;52.246;21.054;2023-09-18T05:55:28;25.92;;;14.70;;
30896;SDS011;64229;52.246;21.054;2023-09-18T05:57:55;22.90;;;14.30;;
30896;SDS011;64229;52.246;21.054;2023-09-18T06:00:20;23.60;;;14.13;;
30896;SDS011;64229;52.246;21.054;2023-09-18T06:02:46;22.85;;;14.15;;
30896;SDS011;64229;52.246;21.054;2023-09-18T06:05:12;21.85;;;13.55;;
30896;SDS011;64229;52.246;21.054;2023-09-18T06:07:37;23.27;;;13.00;;
30896;SDS011;64229;52.246;21.054;2023-09-18T06:10:02;22.53;;;12.57;;
30896;SDS011;64229;52.246;21.054;2023-09-18T06:12:28;19.25;;;12.52;;
30896;SDS011;64229;52.246;21.054;2023-09-18T06:14:54;19.20;;;13.45;;
30896;SDS011;64229;52.246;21.054;2023-09-18T06:17:19;20.15;;;13.80;;
30896;SDS011;64229;52.246;21.054;2023-09-18T06:19:45;23.00;;;13.25;;
30896;SDS011;64229;52.246;21.054;2023-09-18T06:22:11;20.88;;;12.98;;
30896;SDS011;64229;52.246;21.054;2023-09-18T06:24:36;20.75;;;13.93;;
30896;SDS011;64229;52.246;21.054;2023-09-18T06:27:02;20.83;;;13.27;;
30896;SDS011;64229;52.246;21.054;2023-09-18T06:29:29;20.58;;;13.93;;
30896;SDS011;64229;52.246;21.054;2023-09-18T06:31:55;19.30;;;13.57;;
30896;SDS011;64229;52.246;21.054;2023-09-18T06:34:20;20.63;;;14.57;;
30896;SDS011;64229;52.246;21.054;2023-09-18T06:36:46;21.23;;;14.33;;
30896;SDS011;64229;52.246;21.054;2023-09-18T06:39:11;22.20;;;13.63;;
30896;SDS011;64229;52.246;21.054;2023-09-18T06:41:36;19.40;;;13.77;;
30896;SDS011;64229;52.246;21.054;2023-09-18T06:44:01;19.97;;;13.37;;
30896;SDS011;64229;52.246;21.054;2023-09-18T06:46:27;17.15;;;11.88;;
30896;SDS011;64229;52.246;21.054;2023-09-18T06:48:53;19.42;;;12.88;;
30896;SDS011;64229;52.246;21.054;2023-09-18T06:51:18;22.73;;;13.27;;
30896;SDS011;64229;52.246;21.054;2023-09-18T06:53:44;21.20;;;13.40;;
30896;SDS011;64229;52.246;21.054;2023-09-18T06:56:09;18.88;;;12.63;;
30896;SDS011;64229;52.246;21.054;2023-09-18T06:58:34;19.30;;;13.23;;
30896;SDS011;64229;52.246;21.054;2023-09-18T07:01:00;19.90;;;13.10;;
30896;SDS011;64229;52.246;21.054;2023-09-18T07:03:25;19.83;;;12.30;;
30896;SDS011;64229;52.246;21.054;2023-09-18T07:05:51;19.57;;;13.37;;
30896;SDS011;64229;52.246;21.054;2023-09-18T07:08:16;17.08;;;11.95;;
30896;SDS011;64229;52.246;21.054;2023-09-18T07:10:44;18.67;;;12.27;;
30896;SDS011;64229;52.246;21.054;2023-09-18T07:13:10;16.58;;;11.23;;
30896;SDS011;64229;52.246;21.054;2023-09-18T07:15:36;18.65;;;12.70;;
30896;SDS011;64229;52.246;21.054;2023-09-18T07:18:01;19.00;;;12.77;;
30896;SDS011;64229;52.246;21.054;2023-09-18T07:20:26;20.80;;;12.10;;
30896;SDS011;64229;52.246;21.054;2023-09-18T07:22:52;19.58;;;11.63;;
30896;SDS011;64229;52.246;21.054;2023-09-18T07:25:17;16.87;;;11.40;;
30896;SDS011;64229;52.246;21.054;2023-09-18T07:27:43;16.20;;;11.80;;
30896;SDS011;64229;52.246;21.054;2023-09-18T07:30:11;15.35;;;11.30;;
30896;SDS011;64229;52.246;21.054;2023-09-18T07:32:39;21.35;;;11.45;;
30896;SDS011;64229;52.246;21.054;2023-09-18T07:35:06;21.08;;;12.65;;
30896;SDS011;64229;52.246;21.054;2023-09-18T07:37:32;17.08;;;11.48;;
30896;SDS011;64229;52.246;21.054;2023-09-18T07:39:57;16.57;;;11.53;;
30896;SDS011;64229;52.246;21.054;2023-09-18T07:42:26;16.92;;;11.30;;
30896;SDS011;64229;52.246;21.054;2023-09-18T07:44:52;16.58;;;12.13;;
30896;SDS011;64229;52.246;21.054;2023-09-18T07:47:17;14.82;;;11.27;;
30896;SDS011;64229;52.246;21.054;2023-09-18T07:49:43;19.35;;;12.15;;
30896;SDS011;64229;52.246;21.054;2023-09-18T07:52:08;18.27;;;11.13;;
30896;SDS011;64229;52.246;21.054;2023-09-18T07:54:33;21.50;;;12.57;;
30896;SDS011;64229;52.246;21.054;2023-09-18T07:56:59;20.48;;;12.70;;
30896;SDS011;64229;52.246;21.054;2023-09-18T07:59:25;19.52;;;11.50;;
30896;SDS011;64229;52.246;21.054;2023-09-18T08:01:50;18.08;;;12.00;;
30896;SDS011;64229;52.246;21.054;2023-09-18T08:04:16;21.15;;;13.32;;
30896;SDS011;64229;52.246;21.054;2023-09-18T08:06:41;15.53;;;12.13;;
30896;SDS011;64229;52.246;21.054;2023-09-18T08:09:07;18.63;;;12.03;;
30896;SDS011;64229;52.246;21.054;2023-09-18T08:11:35;14.80;;;11.60;;
30896;SDS011;64229;52.246;21.054;2023-09-18T08:14:01;17.90;;;11.50;;
30896;SDS011;64229;52.246;21.054;2023-09-18T08:16:26;15.65;;;11.00;;
30896;SDS011;64229;52.246;21.054;2023-09-18T08:18:52;14.23;;;10.80;;
30896;SDS011;64229;52.246;21.054;2023-09-18T08:21:17;15.83;;;10.50;;
30896;SDS011;64229;52.246;21.054;2023-09-18T08:23:43;16.10;;;10.57;;
30896;SDS011;64229;52.246;21.054;2023-09-18T08:26:08;16.33;;;9.67;;
30896;SDS011;64229;52.246;21.054;2023-09-18T08:28:33;17.40;;;10.13;;
30896;SDS011;64229;52.246;21.054;2023-09-18T08:31:00;15.13;;;10.18;;
30896;SDS011;64229;52.246;21.054;2023-09-18T08:33:26;13.00;;;9.60;;
30896;SDS011;64229;52.246;21.054;2023-09-18T08:35:51;13.00;;;8.77;;
30896;SDS011;64229;52.246;21.054;2023-09-18T08:38:17;12.03;;;8.77;;
30896;SDS011;64229;52.246;21.054;2023-09-18T08:40:42;18.35;;;10.30;;
30896;SDS011;64229;52.246;21.054;2023-09-18T08:43:08;11.02;;;8.40;;
30896;SDS011;64229;52.246;21.054;2023-09-18T08:45:38;12.75;;;8.48;;
30896;SDS011;64229;52.246;21.054;2023-09-18T08:48:08;12.00;;;8.90;;
30896;SDS011;64229;52.246;21.054;2023-09-18T08:50:34;14.30;;;8.25;;
30896;SDS011;64229;52.246;21.054;2023-09-18T08:53:00;13.23;;;9.02;;
30896;SDS011;64229;52.246;21.054;2023-09-18T08:55:26;12.07;;;8.68;;
30896;SDS011;64229;52.246;21.054;2023-09-18T08:57:52;11.63;;;7.93;;
30896;SDS011;64229;52.246;21.054;2023-09-18T09:00:20;15.23;;;8.30;;
30896;SDS011;64229;52.246;21.054;2023-09-18T09:02:45;12.18;;;7.95;;
30896;SDS011;64229;52.246;21.054;2023-09-18T09:05:13;10.13;;;7.78;;
30896;SDS011;64229;52.246;21.054;2023-09-18T09:07:39;10.80;;;7.55;;
30896;SDS011;64229;52.246;21.054;2023-09-18T09:10:04;10.45;;;7.53;;
30896;SDS011;64229;52.246;21.054;2023-09-18T09:15:19;11.13;;;7.57;;
30896;SDS011;64229;52.246;21.054;2023-09-18T09:17:46;10.93;;;7.72;;
30896;SDS011;64229;52.246;21.054;2023-09-18T09:20:12;10.80;;;7.35;;
30896;SDS011;64229;52.246;21.054;2023-09-18T09:22:39;10.73;;;7.20;;
30896;SDS011;64229;52.246;21.054;2023-09-18T09:27:53;10.07;;;7.13;;
30896;SDS011;64229;52.246;21.054;2023-09-18T09:30:21;9.82;;;7.18;;
30896;SDS011;64229;52.246;21.054;2023-09-18T09:32:49;8.73;;;6.68;;
30896;SDS011;64229;52.246;21.054;2023-09-18T09:35:22;8.45;;;6.85;;
30896;SDS011;64229;52.246;21.054;2023-09-18T09:37:49;9.35;;;7.00;;
30896;SDS011;64229;52.246;21.054;2023-09-18T09:40:16;9.50;;;6.63;;
30896;SDS011;64229;52.246;21.054;2023-09-18T09:42:44;9.77;;;5.70;;
30896;SDS011;64229;52.246;21.054;2023-09-18T09:45:14;6.45;;;5.30;;
30896;SDS011;64229;52.246;21.054;2023-09-18T09:47:41;7.63;;;5.88;;
30896;SDS011;64229;52.246;21.054;2023-09-18T09:50:07;6.85;;;5.30;;
30896;SDS011;64229;52.246;21.054;2023-09-18T09:52:46;8.25;;;6.13;;
30896;SDS011;64229;52.246;21.054;2023-09-18T09:55:27;10.32;;;6.15;;
30896;SDS011;64229;52.246;21.054;2023-09-18T09:57:58;10.20;;;7.28;;
30896;SDS011;64229;52.246;21.054;2023-09-18T10:00:25;9.32;;;6.65;;
30896;SDS011;64229;52.246;21.054;2023-09-18T10:02:57;8.38;;;5.90;;
30896;SDS011;64229;52.246;21.054;2023-09-18T10:05:26;7.45;;;6.38;;
30896;SDS011;64229;52.246;21.054;2023-09-18T10:07:55;8.57;;;6.20;;
30896;SDS011;64229;52.246;21.054;2023-09-18T10:10:30;6.90;;;5.55;;
30896;SDS011;64229;52.246;21.054;2023-09-18T10:13:00;9.27;;;5.90;;
30896;SDS011;64229;52.246;21.054;2023-09-18T10:15:29;8.10;;;6.00;;
30896;SDS011;64229;52.246;21.054;2023-09-18T10:18:03;9.65;;;6.05;;
30896;SDS011;64229;52.246;21.054;2023-09-18T10:20:33;6.90;;;5.65;;
30896;SDS011;64229;52.246;21.054;2023-09-18T10:23:07;7.60;;;5.72;;
30896;SDS011;64229;52.246;21.054;2023-09-18T10:25:45;9.05;;;5.13;;
30896;SDS011;64229;52.246;21.054;2023-09-18T10:28:13;10.98;;;6.05;;
30896;SDS011;64229;52.246;21.054;2023-09-18T10:30:40;9.05;;;5.60;;
30896;SDS011;64229;52.246;21.054;2023-09-18T10:33:07;6.18;;;4.88;;
30896;SDS011;64229;52.246;21.054;2023-09-18T10:35:33;8.52;;;5.35;;
30896;SDS011;64229;52.246;21.054;2023-09-18T10:38:00;10.23;;;5.53;;
30896;SDS011;64229;52.246;21.054;2023-09-18T10:40:27;8.70;;;5.30;;
30896;SDS011;64229;52.246;21.054;2023-09-18T10:42:55;8.55;;;5.00;;
30896;SDS011;64229;52.246;21.054;2023-09-18T10:45:22;9.30;;;5.65;;
30896;SDS011;64229;52.246;21.054;2023-09-18T10:47:48;5.70;;;4.63;;
30896;SDS011;64229;52.246;21.054;2023-09-18T10:50:23;6.72;;;4.78;;
30896;SDS011;64229;52.246;21.054;2023-09-18T10:52:50;7.82;;;4.80;;
30896;SDS011;64229;52.246;21.054;2023-09-18T10:55:16;8.38;;;4.78;;
30896;SDS011;64229;52.246;21.054;2023-09-18T10:57:55;6.47;;;5.03;;
30896;SDS011;64229;52.246;21.054;2023-09-18T11:00:26;6.40;;;4.72;;
30896;SDS011;64229;52.246;21.054;2023-09-18T11:02:54;6.60;;;5.07;;
30896;SDS011;64229;52.246;21.054;2023-09-18T11:05:34;5.63;;;4.53;;
30896;SDS011;64229;52.246;21.054;2023-09-18T11:11:08;4.80;;;3.83;;
30896;SDS011;64229;52.246;21.054;2023-09-18T11:13:52;8.02;;;4.53;;
30896;SDS011;64229;52.246;21.054;2023-09-18T11:18:53;6.13;;;4.15;;
30896;SDS011;64229;52.246;21.054;2023-09-18T11:21:29;5.38;;;4.22;;
30896;SDS011;64229;52.246;21.054;2023-09-18T11:24:03;6.78;;;3.72;;
30896;SDS011;64229;52.246;21.054;2023-09-18T11:26:37;5.63;;;4.30;;
30896;SDS011;64229;52.246;21.054;2023-09-18T11:29:07;8.68;;;4.95;;
30896;SDS011;64229;52.246;21.054;2023-09-18T11:34:14;4.50;;;3.63;;
30896;SDS011;64229;52.246;21.054;2023-09-18T11:36:45;7.35;;;3.95;;
30896;SDS011;64229;52.246;21.054;2023-09-18T11:39:11;6.20;;;4.55;;
30896;SDS011;64229;52.246;21.054;2023-09-18T11:41:37;6.00;;;4.53;;
30896;SDS011;64229;52.246;21.054;2023-09-18T11:46:35;5.57;;;4.40;;
30896;SDS011;64229;52.246;21.054;2023-09-18T11:49:03;6.82;;;4.50;;
30896;SDS011;64229;52.246;21.054;2023-09-18T11:51:30;6.55;;;4.85;;
30896;SDS011;64229;52.246;21.054;2023-09-18T11:53:57;6.03;;;4.25;;
30896;SDS011;64229;52.246;21.054;2023-09-18T11:56:23;5.00;;;4.38;;
30896;SDS011;64229;52.246;21.054;2023-09-18T11:58:50;7.53;;;4.78;;
30896;SDS011;64229;52.246;21.054;2023-09-18T12:01:17;5.35;;;4.30;;
30896;SDS011;64229;52.246;21.054;2023-09-18T12:03:43;7.30;;;4.82;;
30896;SDS011;64229;52.246;21.054;2023-09-18T12:06:09;8.00;;;4.97;;
30896;SDS011;64229;52.246;21.054;2023-09-18T12:08:38;7.07;;;4.95;;
30896;SDS011;64229;52.246;21.054;2023-09-18T12:11:05;8.13;;;5.00;;
30896;SDS011;64229;52.246;21.054;2023-09-18T12:13:31;8.10;;;5.53;;
30896;SDS011;64229;52.246;21.054;2023-09-18T12:16:00;7.57;;;4.82;;
30896;SDS011;64229;52.246;21.054;2023-09-18T12:18:30;8.88;;;4.90;;
30896;SDS011;64229;52.246;21.054;2023-09-18T12:20:56;7.63;;;5.10;;
30896;SDS011;64229;52.246;21.054;2023-09-18T12:23:23;8.10;;;4.88;;
30896;SDS011;64229;52.246;21.054;2023-09-18T12:25:56;6.82;;;5.20;;
30896;SDS011;64229;52.246;21.054;2023-09-18T12:28:26;8.65;;;5.22;;
30896;SDS011;64229;52.246;21.054;2023-09-18T12:30:55;7.95;;;5.28;;
30896;SDS011;64229;52.246;21.054;2023-09-18T12:33:21;6.63;;;5.30;;
30896;SDS011;64229;52.246;21.054;2023-09-18T12:35:47;6.57;;;5.32;;
30896;SDS011;64229;52.246;21.054;2023-09-18T12:38:15;6.72;;;5.35;;
30896;SDS011;64229;52.246;21.054;2023-09-18T12:40:41;9.10;;;5.80;;
30896;SDS011;64229;52.246;21.054;2023-09-18T12:43:09;7.07;;;5.32;;
30896;SDS011;64229;52.246;21.054;2023-09-18T12:45:35;9.00;;;5.60;;
30896;SDS011;64229;52.246;21.054;2023-09-18T12:48:00;8.85;;;5.82;;
30896;SDS011;64229;52.246;21.054;2023-09-18T12:50:26;9.65;;;4.80;;
30896;SDS011;64229;52.246;21.054;2023-09-18T12:52:52;9.40;;;5.63;;
30896;SDS011;64229;52.246;21.054;2023-09-18T12:55:23;7.03;;;5.78;;
30896;SDS011;64229;52.246;21.054;2023-09-18T12:57:50;7.10;;;5.63;;
30896;SDS011;64229;52.246;21.054;2023-09-18T13:00:18;6.80;;;5.28;;
30896;SDS011;64229;52.246;21.054;2023-09-18T13:02:46;6.60;;;5.35;;
30896;SDS011;64229;52.246;21.054;2023-09-18T13:05:11;9.57;;;5.60;;
30896;SDS011;64229;52.246;21.054;2023-09-18T13:07:45;8.15;;;5.63;;
30896;SDS011;64229;52.246;21.054;2023-09-18T13:10:12;8.02;;;5.40;;
30896;SDS011;64229;52.246;21.054;2023-09-18T13:12:46;9.18;;;5.68;;
30896;SDS011;64229;52.246;21.054;2023-09-18T13:15:12;7.68;;;5.47;;
30896;SDS011;64229;52.246;21.054;2023-09-18T13:17:42;6.68;;;5.40;;
30896;SDS011;64229;52.246;21.054;2023-09-18T13:20:16;9.98;;;4.85;;
30896;SDS011;64229;52.246;21.054;2023-09-18T13:22:47;8.80;;;5.43;;
30896;SDS011;64229;52.246;21.054;2023-09-18T13:25:18;6.57;;;5.10;;
30896;SDS011;64229;52.246;21.054;2023-09-18T13:27:45;9.43;;;5.53;;
30896;SDS011;64229;52.246;21.054;2023-09-18T13:30:11;7.15;;;5.20;;
30896;SDS011;64229;52.246;21.054;2023-09-18T13:32:36;10.15;;;5.57;;
30896;SDS011;64229;52.246;21.054;2023-09-18T13:35:02;6.47;;;5.25;;
30896;SDS011;64229;52.246;21.054;2023-09-18T13:37:32;9.45;;;5.85;;
30896;SDS011;64229;52.246;21.054;2023-09-18T13:39:58;7.32;;;5.25;;
30896;SDS011;64229;52.246;21.054;2023-09-18T13:42:26;8.18;;;6.53;;
30896;SDS011;64229;52.246;21.054;2023-09-18T13:44:51;8.60;;;5.68;;
30896;SDS011;64229;52.246;21.054;2023-09-18T13:47:18;10.65;;;5.75;;
30896;SDS011;64229;52.246;21.054;2023-09-18T13:49:43;8.27;;;5.30;;
30896;SDS011;64229;52.246;21.054;2023-09-18T13:52:11;7.40;;;5.55;;
30896;SDS011;64229;52.246;21.054;2023-09-18T13:54:36;9.65;;;5.40;;
30896;SDS011;64229;52.246;21.054;2023-09-18T13:57:02;9.77;;;5.70;;
30896;SDS011;64229;52.246;21.054;2023-09-18T13:59:29;10.15;;;5.38;;
30896;SDS011;64229;52.246;21.054;2023-09-18T14:01:55;8.17;;;5.43;;
30896;SDS011;64229;52.246;21.054;2023-09-18T14:04:21;6.07;;;4.90;;
30896;SDS011;64229;52.246;21.054;2023-09-18T14:06:47;8.38;;;5.45;;
30896;SDS011;64229;52.246;21.054;2023-09-18T14:09:12;8.63;;;5.00;;
30896;SDS011;64229;52.246;21.054;2023-09-18T14:11:37;7.90;;;5.70;;
30896;SDS011;64229;52.246;21.054;2023-09-18T14:14:03;6.75;;;4.88;;
30896;SDS011;64229;52.246;21.054;2023-09-18T14:16:28;9.00;;;5.78;;
30896;SDS011;64229;52.246;21.054;2023-09-18T14:18:55;6.55;;;5.18;;
30896;SDS011;64229;52.246;21.054;2023-09-18T14:21:20;9.83;;;5.27;;
30896;SDS011;64229;52.246;21.054;2023-09-18T14:23:46;11.23;;;5.10;;
30896;SDS011;64229;52.246;21.054;2023-09-18T14:26:12;6.97;;;4.63;;
30896;SDS011;64229;52.246;21.054;2023-09-18T14:28:37;6.40;;;4.80;;
30896;SDS011;64229;52.246;21.054;2023-09-18T14:31:03;12.90;;;7.50;;
30896;SDS011;64229;52.246;21.054;2023-09-18T14:33:28;8.98;;;5.13;;
30896;SDS011;64229;52.246;21.054;2023-09-18T14:35:54;6.87;;;5.20;;
30896;SDS011;64229;52.246;21.054;2023-09-18T14:38:21;6.65;;;5.07;;